Aérodrome :
LOGIN :

S'inscrire | Disclaimer

   EN    FR    IT 

 










Légende :    VFR   VFR Marginal   IFR   IFR Intensif   IFR Très Intensif
Visi : 
Plafond : 
>= 8 km
>= 3000ft
5 à 8 km
1000 à 3000 ft
1500m à 5 km
500 à 1000 ft
800 à 1500m
200 à 500 ft
< 800m
< 200 ft
Symboles :   Orages  Brouillard  Fortes neiges  Fortes précipitations  Vent > 20 kt
SIGMETs :   Divers  Orages  Givrage  Turbulence  Onde Orograph.  Cendres Volcan.






- Altitude de l'aérodrome : 13 ft
- Code IATA : SNR


LFRZ - St-Nazaire

DERNIER METAR :
  • 131030Z AUTO 28021KT 9999 FEW035/// 10/05 Q0997 TEMPO BKN025TCU BECMG 28022G40KT

METARs EXPIRÉS :
  • 131000Z AUTO 28021KT 9999 FEW031 10/05 Q0996 TEMPO BKN025TCU BECMG 28022G40KT
  • 130930Z AUTO 28020KT CAVOK 10/05 Q0995 TEMPO BKN025TCU BECMG 28022G40KT
  • 130900Z AUTO 28023KT 9999 -RA FEW043/// BKN052/// BKN064/// ///TCU 10/05 Q0995 BECMG 28022G40KT
  • 130830Z AUTO 28019KT 9999 FEW033 SCT058 BKN074 10/05 Q0994 TEMPO BKN025TCU BECMG 28022G40KT
  • 130800Z AUTO 29017KT 9999 ///TCU 10/05 Q0994 BECMG 28022G40KT
  • 130730Z AUTO 28021KT CAVOK 09/05 Q0993 TEMPO BKN025TCU BECMG 28022G40KT

TAF TAF LFRZ
Valide du 13 à 06h jusqu'au 14 à 06h UTC


130500Z 1306/1406 28022G40KT 9999 BKN030
TEMPO 1306/1316 -SHRA BKN025TCU
BECMG 1316/1318 3000 RA BKN010
PROB40
TEMPO 1322/1402 27030G50KT
BECMG 1402/1404 27016G30KT 9999 NSW SCT025



MET'MAP, la Météo Aéronautique d'un coup d'oeil ! - Copyright ORBIFLY Décembre 2007 - Disclaimer

ORBIFLY MET'MAP TEAM :

Programmation & Développement : Alexandra Zaïnal
Sur une idée originale de : Baudouin d'Aumeries
Assistance à la programmation : Marc-Olivier Méhu
Soutien technique & logistique : Manuel Goepfert

Contact : metmap@orbifly.com




SOURCES & CREDITS :

   NOAA